Terminal Aerodrome Forecast
Issued by NWS

Home | Current Version | Previous Version | Graphics & Text | Print | Product List | Glossary On
Versions: 1 2 3 4 5 6 7 8 9 10 11 12 13 14 15 16 17 18 19 20
000
FTUS43 KPAH 210522
TAFCGI
TAF
KCGI 210522Z 2106/2206 19005KT P6SM OVC040
      TEMPO 2106/2107 BKN024
     FM210700 18009KT 3SM BR OVC008
     FM211300 17009KT 2SM -DZ BR OVC003
     FM212000 18012G18KT 6SM BR VCSH OVC005=

USA.gov is the U.S. government's official web portal to all federal, state and local government web resources and services.